Nearby METAR Reports

 

KGRB - Ashwaubenon, Wisconsin, USA
Distance from station: NW 5mi, 8km
Updated: Tue, 11-Aug-2020 5:53pm CDT
Clear
Clear
 Wind from WSW
Wind: WSW 5 mph , 7 km/h
Temperature: 81°F , 27°C
Heat Index: 81°F , 27°C
Dew Point: 57°F , 14°C
Humidity: 45%
Barometer: 29.98 inHg , 1015.2 hPa
Clouds: Clear
Visibility: 10 miles , 16 km
2020/08/11 22:53 KGRB 112253Z 25004KT 10SM CLR 27/14 A2998 RMK AO2 SLP149 T02720139
KATW - Appleton/Outagam, Wisconsin, USA
Distance from station: WSW 26mi, 42km
Updated: Tue, 11-Aug-2020 5:45pm CDT
Partly cloudy
Partly cloudy
 Wind from WSW
Wind: WSW 6 mph , 9 km/h
Temperature: 81°F , 27°C
Dew Point: 43°F , 6°C
Humidity: 26%
Barometer: 29.99 inHg , 1015.6 hPa
Clouds: Partly cloudy
Visibility: 10 miles , 16 km
Cloud details: Partly cloudy 12000 ft
2020/08/11 22:45 KATW 112245Z 25005KT 10SM SCT120 27/06 A2999
 
KMTW - Manitowac Muni, Wisconsin, USA
Distance from station: SE 29mi, 47km
Updated: Tue, 11-Aug-2020 5:56pm CDT
Clear
Clear
 Wind from WSW
Wind: WSW 7 mph , 11 km/h
Temperature: 81°F , 27°C
Dew Point: 54°F , 12°C
Humidity: 39%
Barometer: 29.99 inHg , 1015.6 hPa
Clouds: Clear
Visibility: 10 miles , 16 km
2020/08/11 22:56 KMTW 112256Z AUTO 24006KT 10SM CLR 27/12 A2999 RMK AO2 SLP155 T02670122
KOCQ - Oconto, Wisconsin, USA
Distance from station: NNE 30mi, 49km
Updated: Tue, 11-Aug-2020 5:55pm CDT
Clear
Clear
 Wind from WSW
Wind: WSW 6 mph , 9 km/h
Temperature: 82°F , 28°C
Heat Index: 81°F , 27°C
Dew Point: 55°F , 13°C
Humidity: 40%
Barometer: 29.95 inHg , 1014.2 hPa
Clouds: Clear
Visibility: 10 miles , 16 km
2020/08/11 22:55 KOCQ 112255Z AUTO 24005KT 10SM CLR 28/13 A2995 RMK AO1 T02750131
 
KEZS - Shawano Muni, Wisconsin, USA
Distance from station: NW 35mi, 56km
Updated: Tue, 11-Aug-2020 5:55pm CDT
Clear
Clear
 Wind from W
Wind: W 6 mph , 9 km/h
Temperature: 82°F , 28°C
Dew Point: 50°F , 10°C
Humidity: 32%
Barometer: 29.97 inHg , 1014.9 hPa
Clouds: Clear
Visibility: 10 miles , 16 km
2020/08/11 22:55 KEZS 112255Z AUTO 27005KT 10SM CLR 28/10 A2997 RMK AO2 T02840102
KCLI - Clintonville, Wisconsin, USA
Distance from station: WNW 36mi, 58km
Updated: Tue, 11-Aug-2020 5:55pm CDT
Clear
Clear
 Wind from W
Wind: W 7 mph , 11 km/h
Temperature: 82°F , 28°C
Dew Point: 46°F , 8°C
Humidity: 28%
Barometer: 29.98 inHg , 1015.2 hPa
Clouds: Clear
Visibility: 10 miles , 16 km
2020/08/11 22:55 KCLI 112255Z AUTO 26006KT 10SM CLR 28/08 A2998 RMK AO2 T02830084
 
KOSH - Oshkosh, Wisconsin, USA
Distance from station: SW 41mi, 66km
Updated: Tue, 11-Aug-2020 5:53pm CDT
Clear
Clear
 Wind from varies
Wind: varies 5 mph , 7 km/h
Temperature: 81°F , 27°C
Dew Point: 52°F , 11°C
Humidity: 37%
Barometer: 29.99 inHg , 1015.6 hPa
Clouds: Clear
Visibility: 10 miles , 16 km
2020/08/11 22:53 KOSH 112253Z VRB04KT 10SM CLR 27/11 A2999 RMK AO2 SLP146 T02720111
KSUE - Sturgeon Bay, Wisconsin, USA
Distance from station: NE 42mi, 68km
Updated: Tue, 11-Aug-2020 5:56pm CDT
Clear
Clear
 Wind from WSW
Wind: WSW 8 mph , 13 km/h
Temperature: 81°F , 27°C
Dew Point: 54°F , 12°C
Humidity: 39%
Barometer: 29.97 inHg , 1014.9 hPa
Clouds: Clear
Visibility: 10 miles , 16 km
2020/08/11 22:56 KSUE 112256Z AUTO 25007KT 10SM CLR 27/12 A2997 RMK AO2 SLP146 T02720122
 
KSBM - Sheboygan, Wisconsin, USA
Distance from station: SSE 46mi, 75km
Updated: Tue, 11-Aug-2020 5:53pm CDT
Clear
Clear
 Wind from W
Wind: W 7 mph , 11 km/h
Temperature: 81°F , 27°C
Dew Point: 54°F , 12°C
Humidity: 39%
Barometer: 30.00 inHg , 1015.9 hPa
Clouds: Clear
Visibility: 10 miles , 16 km
2020/08/11 22:53 KSBM 112253Z AUTO 27006KT 10SM CLR 27/12 A3000 RMK AO2 SLP156 T02720122
KPCZ - Waupaca, Wisconsin, USA
Distance from station: W 48mi, 77km
Updated: Tue, 11-Aug-2020 5:55pm CDT
Clear
Clear
 Wind from SW
Wind: SW 6 mph , 9 km/h
Temperature: 84°F , 29°C
Dew Point: 46°F , 8°C
Humidity: 27%
Barometer: 29.99 inHg , 1015.6 hPa
Clouds: Clear
Visibility: 10 miles , 16 km
2020/08/11 22:55 KPCZ 112255Z AUTO 23005KT 10SM CLR 29/08 A2999 RMK AO2 T02880080